New Mingzhou66 — VRQE8 — position and weather

sailwx.info

Track history (hours):
 
Tides and Currents Weather Stations Pressure Air Temp Water Temp Dewpoint Dewpoint Depression Visibility Wind Speed Wind Dir Waves Ship Positions

New Mingzhou66

Last reported at 2017-Dec-11 16:50 UTC. Time now 2017-Dec-11 21:00 UTC.
Position N 35°37' E 139°46'.

Length 148 m; draft 7.7 m.

Type: Ship (hazmat cat A). MMSI: 477439900.

Date/timePositionNaut miles runAvg speedWind from/ knotsBaromVisibWave heightAir tempDewpointWater temp
2017-Dec-11 16:50N 35°37' E 139°46'0 0.0
2017-Dec-11 16:29N 35°37' E 139°46'0 0.0
2017-Dec-11 15:59N 35°37' E 139°46'0 0.0
2017-Dec-11 15:23N 35°37' E 139°46'0 0.0
2017-Dec-11 12:08N 35°37' E 139°46'0 0.0
2017-Dec-11 11:41N 35°37' E 139°46'0 0.0
2017-Dec-11 11:17N 35°37' E 139°46'0 0.1
2017-Dec-11 10:56N 35°37' E 139°46'0 0.0
2017-Dec-11 10:17N 35°37' E 139°46'0 0.0
2017-Dec-11 09:50N 35°37' E 139°46'0 0.0
2017-Dec-11 09:20N 35°37' E 139°46'0 0.0
2017-Dec-11 08:56N 35°37' E 139°46'0 0.0
2017-Dec-11 08:26N 35°37' E 139°46'0 0.0
2017-Dec-11 07:56N 35°37' E 139°46'0 0.0
2017-Dec-11 07:29N 35°37' E 139°46'0 0.0
2017-Dec-11 06:56N 35°37' E 139°46'0 0.0
2017-Dec-11 06:20N 35°37' E 139°46'0 0.0
2017-Dec-11 05:50N 35°37' E 139°46'0 0.1
2017-Dec-11 05:29N 35°37' E 139°46'2 4.9
2017-Dec-11 05:00N 35°35' E 139°48'4 8.2
2017-Dec-11 04:30N 35°32' E 139°52'612.2
2017-Dec-11 04:01N 35°27' E 139°49'713.5
2017-Dec-11 03:30N 35°21' E 139°45'611.8
2017-Dec-11 03:00N 35°15' E 139°47'714.1
2017-Dec-11 02:30N 35°08' E 139°45'816.0
2017-Dec-11 02:00N 35°02' E 139°40'917.1
2017-Dec-11 01:30N 34°57' E 139°31'918.1
2017-Dec-11 01:00N 34°51' E 139°22'916.7
2017-Dec-11 00:30N 34°46' E 139°14'816.1
2017-Dec-11 00:01N 34°41' E 139°07'816.5
2017-Dec-10 23:30N 34°35' E 138°60'815.7
2017-Dec-10 23:00N 34°32' E 138°51'816.7
2017-Dec-10 22:30N 34°32' E 138°41'916.7
2017-Dec-10 21:59N 34°32' E 138°30'917.3
2017-Dec-10 21:29N 34°32' E 138°20'917.5
2017-Dec-10 20:57N 34°32' E 138°08'916.5
2017-Dec-10 20:23N 34°32' E 137°57'616.3
2017-Dec-10 20:00N 34°32' E 137°49'3716.1
2017-Dec-10 17:44N 34°32' E 137°05'1514.2
2017-Dec-10 16:40N 34°41' E 136°50'316.2
2017-Dec-10 16:30N 34°43' E 136°48'816.0
2017-Dec-10 16:00N 34°51' E 136°46'815.8
2017-Dec-10 15:30N 34°59' E 136°46'3 6.0
2017-Dec-10 15:00N 35°01' E 136°48'0 0.0
2017-Dec-10 14:28N 35°01' E 136°48'0 0.0
2017-Dec-10 13:58N 35°01' E 136°48'0 0.0
2017-Dec-10 13:28N 35°01' E 136°48'0 0.0
2017-Dec-10 12:58N 35°01' E 136°48'0 0.0
2017-Dec-10 12:28N 35°01' E 136°48'0 0.0
2017-Dec-10 11:58N 35°01' E 136°48'0 0.0
2017-Dec-10 11:28N 35°01' E 136°48'0 0.0
2017-Dec-10 10:58N 35°01' E 136°48'0 0.0
2017-Dec-10 10:28N 35°01' E 136°48'0 0.0
2017-Dec-10 09:58N 35°01' E 136°48'1 2.5
2017-Dec-10 09:30N 35°00' E 136°48'612.4
2017-Dec-10 09:00N 34°54' E 136°47'816.0
2017-Dec-10 08:31N 34°46' E 136°49'915.7
2017-Dec-10 07:57N 34°39' E 136°54'715.1
2017-Dec-10 07:29N 34°34' E 137°00'712.7
2017-Dec-10 06:57N 34°27' E 137°01'2314.9
2017-Dec-10 05:27N 34°07' E 136°49'1015.5
2017-Dec-10 04:48N 34°01' E 136°39'515.7
2017-Dec-10 04:27N 33°57' E 136°34'715.6
2017-Dec-10 04:00N 33°53' E 136°29'7212.1
2017-Dec-09 22:03N 33°50' E 135°02'116.3
2017-Dec-09 21:58N 33°52' E 135°01'715.8
2017-Dec-09 21:30N 33°59' E 134°58'815.8
2017-Dec-09 21:00N 34°07' E 134°58'816.3
2017-Dec-09 20:31N 34°15' E 134°59'816.2
2017-Dec-09 20:00N 34°23' E 135°01'815.8
2017-Dec-09 19:30N 34°28' E 135°08'815.8
2017-Dec-09 19:00N 34°33' E 135°15'815.2
2017-Dec-09 18:31N 34°38' E 135°23'3 5.3
2017-Dec-09 18:01N 34°39' E 135°26'0 0.0
2017-Dec-09 17:29N 34°39' E 135°26'0 0.0
2017-Dec-09 16:59N 34°39' E 135°26'0 0.0
2017-Dec-09 16:29N 34°39' E 135°26'0 0.0
2017-Dec-09 15:59N 34°39' E 135°26'0 0.0
2017-Dec-09 15:29N 34°39' E 135°26'0 0.0
2017-Dec-09 14:59N 34°39' E 135°26'0 0.0
2017-Dec-09 14:29N 34°39' E 135°26'0 0.0
2017-Dec-09 13:59N 34°39' E 135°26'0 0.0
2017-Dec-09 13:29N 34°39' E 135°26'0 0.0
2017-Dec-09 12:59N 34°39' E 135°26'0 0.0
2017-Dec-09 12:26N 34°39' E 135°26'0 0.0
2017-Dec-09 11:59N 34°39' E 135°26'1 1.4
2017-Dec-09 11:31N 34°39' E 135°25'4 7.5
2017-Dec-09 11:01N 34°37' E 135°21'511.0
2017-Dec-09 10:30N 34°40' E 135°15'1 2.2
2017-Dec-09 10:00N 34°41' E 135°16'0 0.0
2017-Dec-09 09:29N 34°41' E 135°16'0 0.0
2017-Dec-09 08:59N 34°41' E 135°16'0 0.0
2017-Dec-09 08:29N 34°41' E 135°16'0 0.0
2017-Dec-09 07:59N 34°41' E 135°16'0 0.0
2017-Dec-09 07:29N 34°41' E 135°16'0 0.0
2017-Dec-09 06:59N 34°41' E 135°16'0 0.2
2017-Dec-09 06:30N 34°41' E 135°16'1 2.2
2017-Dec-09 06:00N 34°40' E 135°15'5 9.1
2017-Dec-09 05:30N 34°35' E 135°14'815.6
2017-Dec-09 05:01N 34°35' E 135°04'612.9
2017-Dec-09 04:30N 34°36' E 134°56'714.0
2017-Dec-09 04:00N 34°33' E 134°49'815.2
2017-Dec-09 03:31N 34°30' E 134°40'816.1
2017-Dec-09 03:01N 34°27' E 134°31'816.1
2017-Dec-09 02:31N 34°24' E 134°22'815.4
2017-Dec-09 02:00N 34°24' E 134°13'7413.7
2017-Dec-08 20:37N 34°02' E 132°48'215.3
2017-Dec-08 20:30N 34°01' E 132°46'714.7
2017-Dec-08 20:00N 33°55' E 132°40'815.3
2017-Dec-08 19:30N 33°50' E 132°33'915.6
2017-Dec-08 18:56N 33°46' E 132°24'2015.7
2017-Dec-08 17:38N 33°42' E 132°00'417.1
2017-Dec-08 17:24N 33°43' E 131°55'716.9
2017-Dec-08 17:00N 33°45' E 131°48'917.2
2017-Dec-08 16:30N 33°46' E 131°38'917.0
2017-Dec-08 16:00N 33°48' E 131°27'816.7
2017-Dec-08 15:30N 33°50' E 131°18'816.2
2017-Dec-08 15:00N 33°53' E 131°09'714.8
2017-Dec-08 14:30N 33°58' E 131°02'4 8.8
2017-Dec-08 14:01N 33°57' E 130°57'4 8.4
2017-Dec-08 13:30N 33°57' E 130°52'713.0
2017-Dec-08 13:01N 34°02' E 130°47'816.1
2017-Dec-08 12:30N 34°01' E 130°37'815.9
2017-Dec-08 12:01N 33°58' E 130°28'815.4
2017-Dec-08 11:30N 33°54' E 130°20'815.6
2017-Dec-08 11:01N 33°50' E 130°12'815.6
2017-Dec-08 10:31N 33°46' E 130°04'815.9
2017-Dec-08 09:59N 33°41' E 129°56'  
2017-Dec-03 07:02N 30°31' E 121°39'111.4
2017-Dec-03 06:55N 30°30' E 121°40'511.9
2017-Dec-03 06:30N 30°30' E 121°46'612.3
2017-Dec-03 06:00N 30°31' E 121°53'812.9
2017-Dec-03 05:24N 30°32' E 122°02'  
Track history (hours):
 
Tides and Currents Weather Stations Pressure Air Temp Water Temp Dewpoint Dewpoint Depression Visibility Wind Speed Wind Dir Waves Ship Positions

New Mingzhou66

Last reported at 2017-Dec-11 16:50 UTC. Time now 2017-Dec-11 21:00 UTC.
Position N 35°37' E 139°46'.

Length 148 m; draft 7.7 m.

Type: Ship (hazmat cat A). MMSI: 477439900.

Date/timePositionNaut miles runAvg speedWind from/ knotsBaromVisibWave heightAir tempDewpointWater temp
2017-Dec-11 16:50N 35°37' E 139°46'0 0.0
2017-Dec-11 16:29N 35°37' E 139°46'0 0.0
2017-Dec-11 15:59N 35°37' E 139°46'0 0.0
2017-Dec-11 15:23N 35°37' E 139°46'0 0.0
2017-Dec-11 12:08N 35°37' E 139°46'0 0.0
2017-Dec-11 11:41N 35°37' E 139°46'0 0.0
2017-Dec-11 11:17N 35°37' E 139°46'0 0.1
2017-Dec-11 10:56N 35°37' E 139°46'0 0.0
2017-Dec-11 10:17N 35°37' E 139°46'0 0.0
2017-Dec-11 09:50N 35°37' E 139°46'0 0.0
2017-Dec-11 09:20N 35°37' E 139°46'0 0.0
2017-Dec-11 08:56N 35°37' E 139°46'0 0.0
2017-Dec-11 08:26N 35°37' E 139°46'0 0.0
2017-Dec-11 07:56N 35°37' E 139°46'0 0.0
2017-Dec-11 07:29N 35°37' E 139°46'0 0.0
2017-Dec-11 06:56N 35°37' E 139°46'0 0.0
2017-Dec-11 06:20N 35°37' E 139°46'0 0.0
2017-Dec-11 05:50N 35°37' E 139°46'0 0.1
2017-Dec-11 05:29N 35°37' E 139°46'2 4.9
2017-Dec-11 05:00N 35°35' E 139°48'4 8.2
2017-Dec-11 04:30N 35°32' E 139°52'612.2
2017-Dec-11 04:01N 35°27' E 139°49'713.5
2017-Dec-11 03:30N 35°21' E 139°45'611.8
2017-Dec-11 03:00N 35°15' E 139°47'714.1
2017-Dec-11 02:30N 35°08' E 139°45'816.0
2017-Dec-11 02:00N 35°02' E 139°40'917.1
2017-Dec-11 01:30N 34°57' E 139°31'918.1
2017-Dec-11 01:00N 34°51' E 139°22'916.7
2017-Dec-11 00:30N 34°46' E 139°14'816.1
2017-Dec-11 00:01N 34°41' E 139°07'816.5
2017-Dec-10 23:30N 34°35' E 138°60'815.7
2017-Dec-10 23:00N 34°32' E 138°51'816.7
2017-Dec-10 22:30N 34°32' E 138°41'916.7
2017-Dec-10 21:59N 34°32' E 138°30'917.3
2017-Dec-10 21:29N 34°32' E 138°20'917.5
2017-Dec-10 20:57N 34°32' E 138°08'916.5
2017-Dec-10 20:23N 34°32' E 137°57'616.3
2017-Dec-10 20:00N 34°32' E 137°49'3716.1
2017-Dec-10 17:44N 34°32' E 137°05'1514.2
2017-Dec-10 16:40N 34°41' E 136°50'316.2
2017-Dec-10 16:30N 34°43' E 136°48'816.0
2017-Dec-10 16:00N 34°51' E 136°46'815.8
2017-Dec-10 15:30N 34°59' E 136°46'3 6.0
2017-Dec-10 15:00N 35°01' E 136°48'0 0.0
2017-Dec-10 14:28N 35°01' E 136°48'0 0.0
2017-Dec-10 13:58N 35°01' E 136°48'0 0.0
2017-Dec-10 13:28N 35°01' E 136°48'0 0.0
2017-Dec-10 12:58N 35°01' E 136°48'0 0.0
2017-Dec-10 12:28N 35°01' E 136°48'0 0.0
2017-Dec-10 11:58N 35°01' E 136°48'0 0.0
2017-Dec-10 11:28N 35°01' E 136°48'0 0.0
2017-Dec-10 10:58N 35°01' E 136°48'0 0.0
2017-Dec-10 10:28N 35°01' E 136°48'0 0.0
2017-Dec-10 09:58N 35°01' E 136°48'1 2.5
2017-Dec-10 09:30N 35°00' E 136°48'612.4
2017-Dec-10 09:00N 34°54' E 136°47'816.0
2017-Dec-10 08:31N 34°46' E 136°49'915.7
2017-Dec-10 07:57N 34°39' E 136°54'715.1
2017-Dec-10 07:29N 34°34' E 137°00'712.7
2017-Dec-10 06:57N 34°27' E 137°01'2314.9
2017-Dec-10 05:27N 34°07' E 136°49'1015.5
2017-Dec-10 04:48N 34°01' E 136°39'515.7
2017-Dec-10 04:27N 33°57' E 136°34'715.6
2017-Dec-10 04:00N 33°53' E 136°29'7212.1
2017-Dec-09 22:03N 33°50' E 135°02'116.3
2017-Dec-09 21:58N 33°52' E 135°01'715.8
2017-Dec-09 21:30N 33°59' E 134°58'815.8
2017-Dec-09 21:00N 34°07' E 134°58'816.3
2017-Dec-09 20:31N 34°15' E 134°59'816.2
2017-Dec-09 20:00N 34°23' E 135°01'815.8
2017-Dec-09 19:30N 34°28' E 135°08'815.8
2017-Dec-09 19:00N 34°33' E 135°15'815.2
2017-Dec-09 18:31N 34°38' E 135°23'3 5.3
2017-Dec-09 18:01N 34°39' E 135°26'0 0.0
2017-Dec-09 17:29N 34°39' E 135°26'0 0.0
2017-Dec-09 16:59N 34°39' E 135°26'0 0.0
2017-Dec-09 16:29N 34°39' E 135°26'0 0.0
2017-Dec-09 15:59N 34°39' E 135°26'0 0.0
2017-Dec-09 15:29N 34°39' E 135°26'0 0.0
2017-Dec-09 14:59N 34°39' E 135°26'0 0.0
2017-Dec-09 14:29N 34°39' E 135°26'0 0.0
2017-Dec-09 13:59N 34°39' E 135°26'0 0.0
2017-Dec-09 13:29N 34°39' E 135°26'0 0.0
2017-Dec-09 12:59N 34°39' E 135°26'0 0.0
2017-Dec-09 12:26N 34°39' E 135°26'0 0.0
2017-Dec-09 11:59N 34°39' E 135°26'1 1.4
2017-Dec-09 11:31N 34°39' E 135°25'4 7.5
2017-Dec-09 11:01N 34°37' E 135°21'511.0
2017-Dec-09 10:30N 34°40' E 135°15'1 2.2
2017-Dec-09 10:00N 34°41' E 135°16'0 0.0
2017-Dec-09 09:29N 34°41' E 135°16'0 0.0
2017-Dec-09 08:59N 34°41' E 135°16'0 0.0
2017-Dec-09 08:29N 34°41' E 135°16'0 0.0
2017-Dec-09 07:59N 34°41' E 135°16'0 0.0
2017-Dec-09 07:29N 34°41' E 135°16'0 0.0
2017-Dec-09 06:59N 34°41' E 135°16'0 0.2
2017-Dec-09 06:30N 34°41' E 135°16'1 2.2
2017-Dec-09 06:00N 34°40' E 135°15'5 9.1
2017-Dec-09 05:30N 34°35' E 135°14'815.6
2017-Dec-09 05:01N 34°35' E 135°04'612.9
2017-Dec-09 04:30N 34°36' E 134°56'714.0
2017-Dec-09 04:00N 34°33' E 134°49'815.2
2017-Dec-09 03:31N 34°30' E 134°40'816.1
2017-Dec-09 03:01N 34°27' E 134°31'816.1
2017-Dec-09 02:31N 34°24' E 134°22'815.4
2017-Dec-09 02:00N 34°24' E 134°13'7413.7
2017-Dec-08 20:37N 34°02' E 132°48'215.3
2017-Dec-08 20:30N 34°01' E 132°46'714.7
2017-Dec-08 20:00N 33°55' E 132°40'815.3
2017-Dec-08 19:30N 33°50' E 132°33'915.6
2017-Dec-08 18:56N 33°46' E 132°24'2015.7
2017-Dec-08 17:38N 33°42' E 132°00'417.1
2017-Dec-08 17:24N 33°43' E 131°55'716.9
2017-Dec-08 17:00N 33°45' E 131°48'917.2
2017-Dec-08 16:30N 33°46' E 131°38'917.0
2017-Dec-08 16:00N 33°48' E 131°27'816.7
2017-Dec-08 15:30N 33°50' E 131°18'816.2
2017-Dec-08 15:00N 33°53' E 131°09'714.8
2017-Dec-08 14:30N 33°58' E 131°02'4 8.8
2017-Dec-08 14:01N 33°57' E 130°57'4 8.4
2017-Dec-08 13:30N 33°57' E 130°52'713.0
2017-Dec-08 13:01N 34°02' E 130°47'816.1
2017-Dec-08 12:30N 34°01' E 130°37'815.9
2017-Dec-08 12:01N 33°58' E 130°28'815.4
2017-Dec-08 11:30N 33°54' E 130°20'815.6
2017-Dec-08 11:01N 33°50' E 130°12'815.6
2017-Dec-08 10:31N 33°46' E 130°04'815.9
2017-Dec-08 09:59N 33°41' E 129°56'  
2017-Dec-03 07:02N 30°31' E 121°39'111.4
2017-Dec-03 06:55N 30°30' E 121°40'511.9
2017-Dec-03 06:30N 30°30' E 121°46'612.3
2017-Dec-03 06:00N 30°31' E 121°53'812.9
2017-Dec-03 05:24N 30°32' E 122°02'  

Dump ship's entire track history